sensor_id;sensor_type;location;lat;lon;timestamp;pressure;altitude;pressure_sealevel;temperature;humidity
16120;BME280;12670;53.502;10.252;2023-07-30T00:01:49;100400.63;;;18.41;100.00
16120;BME280;12670;53.502;10.252;2023-07-30T00:04:52;100399.69;;;18.30;100.00
16120;BME280;12670;53.502;10.252;2023-07-30T00:07:57;100401.38;;;18.43;100.00
16120;BME280;12670;53.502;10.252;2023-07-30T00:10:59;100396.75;;;18.45;100.00
16120;BME280;12670;53.502;10.252;2023-07-30T00:14:02;100400.63;;;18.41;100.00
16120;BME280;12670;53.502;10.252;2023-07-30T00:17:05;100389.16;;;18.50;100.00
16120;BME280;12670;53.502;10.252;2023-07-30T00:20:08;100406.38;;;18.58;100.00
16120;BME280;12670;53.502;10.252;2023-07-30T00:23:12;100407.59;;;18.65;100.00
16120;BME280;12670;53.502;10.252;2023-07-30T00:26:15;100415.53;;;18.56;100.00
16120;BME280;12670;53.502;10.252;2023-07-30T00:29:18;100411.38;;;18.52;100.00
16120;BME280;12670;53.502;10.252;2023-07-30T00:32:21;100424.72;;;18.42;100.00
16120;BME280;12670;53.502;10.252;2023-07-30T00:35:23;100431.91;;;18.19;100.00
16120;BME280;12670;53.502;10.252;2023-07-30T00:38:27;100436.78;;;18.14;100.00
16120;BME280;12670;53.502;10.252;2023-07-30T00:41:30;100435.00;;;17.91;100.00
16120;BME280;12670;53.502;10.252;2023-07-30T00:44:33;100420.50;;;17.93;100.00
16120;BME280;12670;53.502;10.252;2023-07-30T00:47:37;100427.47;;;17.96;100.00
16120;BME280;12670;53.502;10.252;2023-07-30T00:50:40;100419.41;;;17.96;100.00
16120;BME280;12670;53.502;10.252;2023-07-30T00:53:45;100433.34;;;18.01;100.00
16120;BME280;12670;53.502;10.252;2023-07-30T00:56:52;100427.13;;;18.00;100.00
16120;BME280;12670;53.502;10.252;2023-07-30T00:59:55;100408.19;;;17.91;100.00
16120;BME280;12670;53.502;10.252;2023-07-30T01:02:58;100415.63;;;17.98;100.00
16120;BME280;12670;53.502;10.252;2023-07-30T01:06:02;100414.28;;;18.04;100.00
16120;BME280;12670;53.502;10.252;2023-07-30T01:09:06;100413.69;;;18.00;100.00
16120;BME280;12670;53.502;10.252;2023-07-30T01:12:09;100424.28;;;17.91;100.00
16120;BME280;12670;53.502;10.252;2023-07-30T01:15:12;100409.41;;;17.98;100.00
16120;BME280;12670;53.502;10.252;2023-07-30T01:18:15;100413.56;;;18.02;100.00
16120;BME280;12670;53.502;10.252;2023-07-30T01:21:19;100404.03;;;17.98;100.00
16120;BME280;12670;53.502;10.252;2023-07-30T01:24:22;100407.22;;;18.03;100.00
16120;BME280;12670;53.502;10.252;2023-07-30T01:27:27;100416.63;;;18.08;100.00
16120;BME280;12670;53.502;10.252;2023-07-30T01:30:33;100425.31;;;18.12;100.00
16120;BME280;12670;53.502;10.252;2023-07-30T01:33:39;100418.31;;;18.09;100.00
16120;BME280;12670;53.502;10.252;2023-07-30T01:36:45;100423.72;;;18.21;100.00
16120;BME280;12670;53.502;10.252;2023-07-30T01:39:49;100427.72;;;18.15;100.00
16120;BME280;12670;53.502;10.252;2023-07-30T01:42:52;100415.03;;;18.17;100.00
16120;BME280;12670;53.502;10.252;2023-07-30T01:45:55;100418.19;;;18.11;100.00
16120;BME280;12670;53.502;10.252;2023-07-30T01:48:58;100420.41;;;18.17;100.00
16120;BME280;12670;53.502;10.252;2023-07-30T01:52:02;100424.31;;;18.13;100.00
16120;BME280;12670;53.502;10.252;2023-07-30T01:55:06;100426.13;;;18.01;100.00
16120;BME280;12670;53.502;10.252;2023-07-30T01:58:09;100419.66;;;18.04;100.00
16120;BME280;12670;53.502;10.252;2023-07-30T02:01:11;100426.84;;;18.03;100.00
16120;BME280;12670;53.502;10.252;2023-07-30T02:04:14;100420.78;;;18.01;100.00
16120;BME280;12670;53.502;10.252;2023-07-30T02:07:20;100423.06;;;17.95;100.00
16120;BME280;12670;53.502;10.252;2023-07-30T02:10:24;100418.88;;;17.79;100.00
16120;BME280;12670;53.502;10.252;2023-07-30T02:13:27;100407.91;;;17.94;100.00
16120;BME280;12670;53.502;10.252;2023-07-30T02:16:29;100410.13;;;17.89;100.00
16120;BME280;12670;53.502;10.252;2023-07-30T02:19:32;100411.84;;;17.90;100.00
16120;BME280;12670;53.502;10.252;2023-07-30T02:22:36;100405.72;;;17.88;100.00
16120;BME280;12670;53.502;10.252;2023-07-30T02:25:38;100404.50;;;17.92;100.00
16120;BME280;12670;53.502;10.252;2023-07-30T02:28:41;100394.88;;;17.78;100.00
16120;BME280;12670;53.502;10.252;2023-07-30T02:31:44;100400.72;;;17.83;100.00
16120;BME280;12670;53.502;10.252;2023-07-30T02:34:47;100399.63;;;17.85;100.00
16120;BME280;12670;53.502;10.252;2023-07-30T02:37:51;100403.28;;;17.84;100.00
16120;BME280;12670;53.502;10.252;2023-07-30T02:40:54;100405.25;;;17.82;100.00
16120;BME280;12670;53.502;10.252;2023-07-30T02:43:56;100411.75;;;17.67;100.00
16120;BME280;12670;53.502;10.252;2023-07-30T02:46:59;100421.75;;;17.65;100.00
16120;BME280;12670;53.502;10.252;2023-07-30T02:50:02;100419.53;;;17.59;100.00
16120;BME280;12670;53.502;10.252;2023-07-30T02:53:06;100422.31;;;17.57;100.00
16120;BME280;12670;53.502;10.252;2023-07-30T02:56:08;100423.44;;;17.66;100.00
16120;BME280;12670;53.502;10.252;2023-07-30T02:59:11;100430.66;;;17.66;100.00
16120;BME280;12670;53.502;10.252;2023-07-30T03:02:14;100436.31;;;17.50;100.00
16120;BME280;12670;53.502;10.252;2023-07-30T03:05:16;100442.19;;;17.55;100.00
16120;BME280;12670;53.502;10.252;2023-07-30T03:08:20;100437.16;;;17.50;100.00
16120;BME280;12670;53.502;10.252;2023-07-30T03:11:23;100443.16;;;17.54;100.00
16120;BME280;12670;53.502;10.252;2023-07-30T03:14:26;100449.38;;;17.54;100.00
16120;BME280;12670;53.502;10.252;2023-07-30T03:17:28;100436.06;;;17.53;100.00
16120;BME280;12670;53.502;10.252;2023-07-30T03:20:31;100442.00;;;17.45;100.00
16120;BME280;12670;53.502;10.252;2023-07-30T03:23:35;100445.16;;;17.39;100.00
16120;BME280;12670;53.502;10.252;2023-07-30T03:26:38;100450.59;;;17.26;100.00
16120;BME280;12670;53.502;10.252;2023-07-30T03:29:40;100449.91;;;17.36;100.00
16120;BME280;12670;53.502;10.252;2023-07-30T03:32:43;100451.72;;;17.35;100.00
16120;BME280;12670;53.502;10.252;2023-07-30T03:35:46;100453.50;;;17.47;100.00
16120;BME280;12670;53.502;10.252;2023-07-30T03:38:50;100448.47;;;17.43;100.00
16120;BME280;12670;53.502;10.252;2023-07-30T03:41:53;100450.41;;;17.41;100.00
16120;BME280;12670;53.502;10.252;2023-07-30T03:44:55;100451.75;;;17.46;100.00
16120;BME280;12670;53.502;10.252;2023-07-30T03:47:58;100458.44;;;17.41;100.00
16120;BME280;12670;53.502;10.252;2023-07-30T03:51:01;100461.50;;;17.36;100.00
16120;BME280;12670;53.502;10.252;2023-07-30T03:54:06;100462.16;;;17.27;100.00
16120;BME280;12670;53.502;10.252;2023-07-30T03:57:08;100457.97;;;17.36;100.00
16120;BME280;12670;53.502;10.252;2023-07-30T04:00:11;100458.91;;;17.35;100.00
16120;BME280;12670;53.502;10.252;2023-07-30T04:03:14;100455.94;;;17.26;100.00
16120;BME280;12670;53.502;10.252;2023-07-30T04:06:17;100458.81;;;17.36;100.00
16120;BME280;12670;53.502;10.252;2023-07-30T04:09:21;100454.31;;;17.37;100.00
16120;BME280;12670;53.502;10.252;2023-07-30T04:12:23;100465.75;;;17.39;100.00
16120;BME280;12670;53.502;10.252;2023-07-30T04:15:26;100464.06;;;17.38;100.00
16120;BME280;12670;53.502;10.252;2023-07-30T04:18:29;100465.63;;;17.40;100.00
16120;BME280;12670;53.502;10.252;2023-07-30T04:21:31;100460.41;;;17.39;100.00
16120;BME280;12670;53.502;10.252;2023-07-30T04:24:35;100468.09;;;17.43;100.00
16120;BME280;12670;53.502;10.252;2023-07-30T04:27:38;100465.94;;;17.48;100.00
16120;BME280;12670;53.502;10.252;2023-07-30T04:30:41;100462.81;;;17.30;100.00
16120;BME280;12670;53.502;10.252;2023-07-30T04:33:43;100470.66;;;17.45;100.00
16120;BME280;12670;53.502;10.252;2023-07-30T04:36:46;100468.63;;;17.48;100.00
16120;BME280;12670;53.502;10.252;2023-07-30T04:39:50;100468.50;;;17.50;100.00
16120;BME280;12670;53.502;10.252;2023-07-30T04:42:53;100464.09;;;17.49;100.00
16120;BME280;12670;53.502;10.252;2023-07-30T04:45:56;100464.84;;;17.51;100.00
16120;BME280;12670;53.502;10.252;2023-07-30T04:49:02;100467.81;;;17.59;100.00
16120;BME280;12670;53.502;10.252;2023-07-30T04:52:06;100476.94;;;17.56;100.00
16120;BME280;12670;53.502;10.252;2023-07-30T04:55:10;100479.22;;;17.50;100.00
16120;BME280;12670;53.502;10.252;2023-07-30T04:58:13;100471.56;;;17.32;100.00
16120;BME280;12670;53.502;10.252;2023-07-30T05:01:15;100477.91;;;17.31;100.00
16120;BME280;12670;53.502;10.252;2023-07-30T05:04:18;100478.06;;;17.41;100.00
16120;BME280;12670;53.502;10.252;2023-07-30T05:07:21;100482.09;;;17.36;100.00
16120;BME280;12670;53.502;10.252;2023-07-30T05:10:25;100479.69;;;17.44;100.00
16120;BME280;12670;53.502;10.252;2023-07-30T05:13:28;100488.97;;;17.51;100.00
16120;BME280;12670;53.502;10.252;2023-07-30T05:16:30;100479.44;;;17.47;100.00
16120;BME280;12670;53.502;10.252;2023-07-30T05:19:33;100477.72;;;17.46;100.00
16120;BME280;12670;53.502;10.252;2023-07-30T05:22:36;100481.72;;;17.64;100.00
16120;BME280;12670;53.502;10.252;2023-07-30T05:25:40;100476.97;;;17.68;100.00
16120;BME280;12670;53.502;10.252;2023-07-30T05:28:43;100478.81;;;17.67;100.00
16120;BME280;12670;53.502;10.252;2023-07-30T05:31:45;100483.94;;;17.70;100.00
16120;BME280;12670;53.502;10.252;2023-07-30T05:34:48;100482.66;;;17.76;100.00
16120;BME280;12670;53.502;10.252;2023-07-30T05:37:51;100481.22;;;17.59;100.00
16120;BME280;12670;53.502;10.252;2023-07-30T05:40:55;100480.63;;;17.67;100.00
16120;BME280;12670;53.502;10.252;2023-07-30T05:43:57;100487.44;;;17.83;100.00
16120;BME280;12670;53.502;10.252;2023-07-30T05:47:00;100485.31;;;17.76;100.00
16120;BME280;12670;53.502;10.252;2023-07-30T05:50:03;100481.44;;;17.80;100.00
16120;BME280;12670;53.502;10.252;2023-07-30T05:53:05;100478.66;;;17.81;100.00
16120;BME280;12670;53.502;10.252;2023-07-30T05:56:09;100485.03;;;17.92;100.00
16120;BME280;12670;53.502;10.252;2023-07-30T05:59:14;100482.69;;;17.87;100.00
16120;BME280;12670;53.502;10.252;2023-07-30T06:02:22;100483.75;;;17.73;100.00
16120;BME280;12670;53.502;10.252;2023-07-30T06:05:24;100486.91;;;18.02;100.00
16120;BME280;12670;53.502;10.252;2023-07-30T06:08:27;100484.06;;;17.93;100.00
16120;BME280;12670;53.502;10.252;2023-07-30T06:11:32;100484.53;;;17.87;100.00
16120;BME280;12670;53.502;10.252;2023-07-30T06:14:35;100477.53;;;18.19;100.00
16120;BME280;12670;53.502;10.252;2023-07-30T06:17:37;100479.69;;;18.03;100.00
16120;BME280;12670;53.502;10.252;2023-07-30T06:20:40;100487.06;;;18.12;100.00
16120;BME280;12670;53.502;10.252;2023-07-30T06:23:43;100485.59;;;18.19;100.00
16120;BME280;12670;53.502;10.252;2023-07-30T06:26:47;100486.09;;;18.24;100.00
16120;BME280;12670;53.502;10.252;2023-07-30T06:29:49;100487.13;;;17.99;100.00
16120;BME280;12670;53.502;10.252;2023-07-30T06:32:52;100493.66;;;18.19;100.00
16120;BME280;12670;53.502;10.252;2023-07-30T06:35:55;100491.00;;;18.30;100.00
16120;BME280;12670;53.502;10.252;2023-07-30T06:38:57;100491.94;;;18.41;100.00
16120;BME280;12670;53.502;10.252;2023-07-30T06:42:02;100484.78;;;18.41;100.00
16120;BME280;12670;53.502;10.252;2023-07-30T06:45:06;100489.78;;;18.46;100.00
16120;BME280;12670;53.502;10.252;2023-07-30T06:48:08;100482.22;;;18.51;100.00
16120;BME280;12670;53.502;10.252;2023-07-30T06:51:11;100486.22;;;18.45;100.00
16120;BME280;12670;53.502;10.252;2023-07-30T06:54:15;100496.41;;;18.53;100.00
16120;BME280;12670;53.502;10.252;2023-07-30T06:57:19;100498.38;;;18.73;100.00
16120;BME280;12670;53.502;10.252;2023-07-30T07:00:22;100496.19;;;18.78;100.00
16120;BME280;12670;53.502;10.252;2023-07-30T07:03:24;100494.22;;;18.69;100.00
16120;BME280;12670;53.502;10.252;2023-07-30T07:06:27;100501.03;;;18.62;100.00
16120;BME280;12670;53.502;10.252;2023-07-30T07:09:30;100507.66;;;18.69;100.00
16120;BME280;12670;53.502;10.252;2023-07-30T07:12:34;100503.53;;;18.76;100.00
16120;BME280;12670;53.502;10.252;2023-07-30T07:15:37;100507.38;;;18.61;100.00
16120;BME280;12670;53.502;10.252;2023-07-30T07:18:39;100510.19;;;18.93;100.00
16120;BME280;12670;53.502;10.252;2023-07-30T07:21:42;100513.03;;;18.91;100.00
16120;BME280;12670;53.502;10.252;2023-07-30T07:24:45;100506.66;;;18.92;100.00
16120;BME280;12670;53.502;10.252;2023-07-30T07:27:49;100512.78;;;19.06;100.00
16120;BME280;12670;53.502;10.252;2023-07-30T07:30:51;100507.41;;;18.95;100.00
16120;BME280;12670;53.502;10.252;2023-07-30T07:33:54;100515.44;;;19.17;100.00
16120;BME280;12670;53.502;10.252;2023-07-30T07:36:57;100504.72;;;19.06;100.00
16120;BME280;12670;53.502;10.252;2023-07-30T07:40:00;100499.78;;;19.11;100.00
16120;BME280;12670;53.502;10.252;2023-07-30T07:43:05;100502.44;;;19.33;100.00
16120;BME280;12670;53.502;10.252;2023-07-30T07:46:07;100507.97;;;19.32;100.00
16120;BME280;12670;53.502;10.252;2023-07-30T07:49:14;100514.06;;;19.34;100.00
16120;BME280;12670;53.502;10.252;2023-07-30T07:52:17;100505.22;;;19.54;100.00
16120;BME280;12670;53.502;10.252;2023-07-30T07:55:20;100515.00;;;19.87;100.00
16120;BME280;12670;53.502;10.252;2023-07-30T07:58:24;100512.84;;;19.81;100.00
16120;BME280;12670;53.502;10.252;2023-07-30T08:01:27;100501.97;;;20.04;100.00
16120;BME280;12670;53.502;10.252;2023-07-30T08:04:30;100496.09;;;19.78;100.00
16120;BME280;12670;53.502;10.252;2023-07-30T08:07:32;100482.78;;;19.76;100.00
16120;BME280;12670;53.502;10.252;2023-07-30T08:10:38;100494.47;;;19.86;100.00
16120;BME280;12670;53.502;10.252;2023-07-30T08:13:43;100492.50;;;19.88;100.00
16120;BME280;12670;53.502;10.252;2023-07-30T08:16:47;100496.56;;;20.04;100.00
16120;BME280;12670;53.502;10.252;2023-07-30T08:19:49;100498.16;;;20.27;100.00
16120;BME280;12670;53.502;10.252;2023-07-30T08:22:52;100491.50;;;20.10;100.00
16120;BME280;12670;53.502;10.252;2023-07-30T08:25:56;100497.50;;;20.14;100.00
16120;BME280;12670;53.502;10.252;2023-07-30T08:29:00;100493.09;;;20.13;100.00
16120;BME280;12670;53.502;10.252;2023-07-30T08:32:03;100483.25;;;20.02;100.00
16120;BME280;12670;53.502;10.252;2023-07-30T08:35:07;100490.88;;;20.18;100.00
16120;BME280;12670;53.502;10.252;2023-07-30T08:38:10;100496.78;;;20.33;100.00
16120;BME280;12670;53.502;10.252;2023-07-30T08:41:12;100491.31;;;20.44;100.00
16120;BME280;12670;53.502;10.252;2023-07-30T08:44:16;100488.72;;;20.54;100.00
16120;BME280;12670;53.502;10.252;2023-07-30T08:47:19;100489.19;;;20.68;100.00
16120;BME280;12670;53.502;10.252;2023-07-30T08:50:22;100479.44;;;20.77;100.00
16120;BME280;12670;53.502;10.252;2023-07-30T08:53:25;100478.16;;;20.81;100.00
16120;BME280;12670;53.502;10.252;2023-07-30T08:56:28;100471.25;;;20.88;100.00
16120;BME280;12670;53.502;10.252;2023-07-30T08:59:37;100473.94;;;20.88;100.00
16120;BME280;12670;53.502;10.252;2023-07-30T09:02:44;100474.97;;;20.97;100.00
16120;BME280;12670;53.502;10.252;2023-07-30T09:05:49;100477.56;;;21.08;100.00
16120;BME280;12670;53.502;10.252;2023-07-30T09:08:52;100482.31;;;20.85;100.00
16120;BME280;12670;53.502;10.252;2023-07-30T09:11:55;100481.44;;;20.85;100.00
16120;BME280;12670;53.502;10.252;2023-07-30T09:14:59;100485.59;;;20.89;100.00
16120;BME280;12670;53.502;10.252;2023-07-30T09:18:02;100490.72;;;20.61;100.00
16120;BME280;12670;53.502;10.252;2023-07-30T09:21:06;100491.03;;;20.68;100.00
16120;BME280;12670;53.502;10.252;2023-07-30T09:24:08;100488.69;;;20.84;100.00
16120;BME280;12670;53.502;10.252;2023-07-30T09:27:11;100487.88;;;20.63;100.00
16120;BME280;12670;53.502;10.252;2023-07-30T09:30:21;100487.69;;;20.85;100.00
16120;BME280;12670;53.502;10.252;2023-07-30T09:33:24;100488.94;;;20.81;100.00
16120;BME280;12670;53.502;10.252;2023-07-30T09:36:26;100489.88;;;20.61;100.00
16120;BME280;12670;53.502;10.252;2023-07-30T09:39:29;100492.16;;;20.44;100.00
16120;BME280;12670;53.502;10.252;2023-07-30T09:42:32;100495.47;;;20.48;100.00
16120;BME280;12670;53.502;10.252;2023-07-30T09:45:43;100501.09;;;20.66;100.00
16120;BME280;12670;53.502;10.252;2023-07-30T09:48:46;100501.47;;;20.92;100.00
16120;BME280;12670;53.502;10.252;2023-07-30T09:51:50;100496.06;;;20.82;100.00
16120;BME280;12670;53.502;10.252;2023-07-30T09:54:55;100492.00;;;20.97;100.00
16120;BME280;12670;53.502;10.252;2023-07-30T09:57:59;100488.84;;;20.92;100.00
16120;BME280;12670;53.502;10.252;2023-07-30T10:01:04;100495.03;;;21.14;100.00
16120;BME280;12670;53.502;10.252;2023-07-30T10:04:08;100498.88;;;21.21;100.00
16120;BME280;12670;53.502;10.252;2023-07-30T10:07:15;100490.63;;;21.13;100.00
16120;BME280;12670;53.502;10.252;2023-07-30T10:10:19;100505.00;;;21.23;100.00
16120;BME280;12670;53.502;10.252;2023-07-30T10:13:22;100498.31;;;21.17;100.00
16120;BME280;12670;53.502;10.252;2023-07-30T10:16:28;100500.38;;;20.94;100.00
16120;BME280;12670;53.502;10.252;2023-07-30T10:19:31;100509.47;;;20.93;100.00
16120;BME280;12670;53.502;10.252;2023-07-30T10:22:38;100512.41;;;20.90;100.00
16120;BME280;12670;53.502;10.252;2023-07-30T10:25:46;100510.22;;;21.15;100.00
16120;BME280;12670;53.502;10.252;2023-07-30T10:28:49;100507.25;;;21.27;100.00
16120;BME280;12670;53.502;10.252;2023-07-30T10:31:57;100507.22;;;21.48;100.00
16120;BME280;12670;53.502;10.252;2023-07-30T10:35:01;100503.81;;;21.66;100.00
16120;BME280;12670;53.502;10.252;2023-07-30T10:38:13;100505.81;;;21.64;100.00
16120;BME280;12670;53.502;10.252;2023-07-30T10:41:16;100516.91;;;21.70;100.00
16120;BME280;12670;53.502;10.252;2023-07-30T10:44:23;100514.50;;;21.27;100.00
16120;BME280;12670;53.502;10.252;2023-07-30T10:47:28;100514.13;;;21.32;100.00
16120;BME280;12670;53.502;10.252;2023-07-30T10:50:38;100517.97;;;21.39;100.00
16120;BME280;12670;53.502;10.252;2023-07-30T10:53:42;100514.31;;;21.49;100.00
16120;BME280;12670;53.502;10.252;2023-07-30T10:56:45;100513.75;;;21.55;100.00
16120;BME280;12670;53.502;10.252;2023-07-30T10:59:48;100518.00;;;21.48;100.00
16120;BME280;12670;53.502;10.252;2023-07-30T11:02:54;100523.66;;;21.45;100.00
16120;BME280;12670;53.502;10.252;2023-07-30T11:05:57;100522.81;;;21.35;100.00
16120;BME280;12670;53.502;10.252;2023-07-30T11:09:00;100519.84;;;21.08;100.00
16120;BME280;12670;53.502;10.252;2023-07-30T11:12:03;100530.19;;;21.02;100.00
16120;BME280;12670;53.502;10.252;2023-07-30T11:15:07;100526.94;;;21.09;100.00
16120;BME280;12670;53.502;10.252;2023-07-30T11:18:12;100518.59;;;21.12;100.00
16120;BME280;12670;53.502;10.252;2023-07-30T11:21:16;100512.75;;;21.07;100.00
16120;BME280;12670;53.502;10.252;2023-07-30T11:24:19;100514.72;;;20.95;100.00
16120;BME280;12670;53.502;10.252;2023-07-30T11:27:22;100517.41;;;21.04;100.00
16120;BME280;12670;53.502;10.252;2023-07-30T11:30:25;100523.16;;;21.21;100.00
16120;BME280;12670;53.502;10.252;2023-07-30T11:33:31;100513.34;;;21.89;100.00
16120;BME280;12670;53.502;10.252;2023-07-30T11:36:34;100514.75;;;22.79;100.00
16120;BME280;12670;53.502;10.252;2023-07-30T11:39:37;100515.41;;;23.28;93.82
16120;BME280;12670;53.502;10.252;2023-07-30T11:42:41;100502.94;;;23.98;92.13
16120;BME280;12670;53.502;10.252;2023-07-30T11:45:44;100499.94;;;24.45;85.24
16120;BME280;12670;53.502;10.252;2023-07-30T11:48:50;100506.56;;;24.33;81.42
16120;BME280;12670;53.502;10.252;2023-07-30T11:52:04;100515.75;;;23.60;84.77
16120;BME280;12670;53.502;10.252;2023-07-30T11:55:07;100504.63;;;22.91;79.28
16120;BME280;12670;53.502;10.252;2023-07-30T11:58:11;100500.88;;;22.54;81.67
16120;BME280;12670;53.502;10.252;2023-07-30T12:01:14;100498.38;;;22.33;85.44
16120;BME280;12670;53.502;10.252;2023-07-30T12:04:18;100499.81;;;22.08;86.82
16120;BME280;12670;53.502;10.252;2023-07-30T12:07:24;100497.41;;;22.25;89.32
16120;BME280;12670;53.502;10.252;2023-07-30T12:10:27;100492.97;;;22.04;88.97
16120;BME280;12670;53.502;10.252;2023-07-30T12:13:30;100491.00;;;22.06;85.79
16120;BME280;12670;53.502;10.252;2023-07-30T12:16:33;100487.72;;;22.32;89.58
16120;BME280;12670;53.502;10.252;2023-07-30T12:19:37;100490.69;;;23.58;89.06
16120;BME280;12670;53.502;10.252;2023-07-30T12:22:39;100496.47;;;24.35;77.86
16120;BME280;12670;53.502;10.252;2023-07-30T12:25:44;100500.41;;;24.40;68.78
16120;BME280;12670;53.502;10.252;2023-07-30T12:28:47;100490.16;;;24.52;68.97
16120;BME280;12670;53.502;10.252;2023-07-30T12:31:49;100493.47;;;24.02;70.58
16120;BME280;12670;53.502;10.252;2023-07-30T12:34:56;100482.88;;;23.91;76.32
16120;BME280;12670;53.502;10.252;2023-07-30T12:37:59;100480.47;;;23.52;75.18
16120;BME280;12670;53.502;10.252;2023-07-30T12:41:01;100482.41;;;23.60;71.82
16120;BME280;12670;53.502;10.252;2023-07-30T12:44:04;100472.13;;;23.99;80.82
16120;BME280;12670;53.502;10.252;2023-07-30T12:47:07;100470.59;;;24.23;86.13
16120;BME280;12670;53.502;10.252;2023-07-30T12:50:11;100460.44;;;24.25;79.25
16120;BME280;12670;53.502;10.252;2023-07-30T12:53:14;100467.94;;;24.31;71.56
16120;BME280;12670;53.502;10.252;2023-07-30T12:56:16;100453.41;;;25.00;77.02
16120;BME280;12670;53.502;10.252;2023-07-30T12:59:19;100457.44;;;24.96;66.78
16120;BME280;12670;53.502;10.252;2023-07-30T13:02:22;100446.00;;;25.10;68.92
16120;BME280;12670;53.502;10.252;2023-07-30T13:05:26;100448.75;;;25.18;64.56
16120;BME280;12670;53.502;10.252;2023-07-30T13:08:28;100441.34;;;25.69;62.68
16120;BME280;12670;53.502;10.252;2023-07-30T13:11:31;100448.13;;;25.41;66.26
16120;BME280;12670;53.502;10.252;2023-07-30T13:14:34;100450.41;;;25.11;66.24
16120;BME280;12670;53.502;10.252;2023-07-30T13:17:37;100448.53;;;24.69;62.34
16120;BME280;12670;53.502;10.252;2023-07-30T13:20:41;100459.75;;;23.79;65.33
16120;BME280;12670;53.502;10.252;2023-07-30T13:23:44;100473.72;;;23.38;65.45
16120;BME280;12670;53.502;10.252;2023-07-30T13:26:46;100480.03;;;22.74;66.32
16120;BME280;12670;53.502;10.252;2023-07-30T13:29:49;100523.16;;;22.29;70.80
16120;BME280;12670;53.502;10.252;2023-07-30T13:32:52;100547.41;;;21.61;85.32
16120;BME280;12670;53.502;10.252;2023-07-30T13:35:56;100575.81;;;20.22;100.00
16120;BME280;12670;53.502;10.252;2023-07-30T13:38:58;100590.34;;;19.98;100.00
16120;BME280;12670;53.502;10.252;2023-07-30T13:42:01;100594.25;;;19.40;100.00
16120;BME280;12670;53.502;10.252;2023-07-30T13:45:05;100599.28;;;19.11;100.00
16120;BME280;12670;53.502;10.252;2023-07-30T13:48:08;100598.91;;;18.93;100.00
16120;BME280;12670;53.502;10.252;2023-07-30T13:51:12;100594.53;;;18.92;100.00
16120;BME280;12670;53.502;10.252;2023-07-30T13:54:15;100594.16;;;18.97;100.00
16120;BME280;12670;53.502;10.252;2023-07-30T13:57:21;100606.97;;;18.71;100.00
16120;BME280;12670;53.502;10.252;2023-07-30T14:00:26;100609.22;;;18.18;100.00
16120;BME280;12670;53.502;10.252;2023-07-30T14:03:29;100602.19;;;18.04;100.00
16120;BME280;12670;53.502;10.252;2023-07-30T14:06:33;100598.84;;;18.13;100.00
16120;BME280;12670;53.502;10.252;2023-07-30T14:09:35;100597.13;;;18.23;100.00
16120;BME280;12670;53.502;10.252;2023-07-30T14:12:38;100593.22;;;18.16;100.00
16120;BME280;12670;53.502;10.252;2023-07-30T14:15:41;100585.97;;;18.29;100.00
16120;BME280;12670;53.502;10.252;2023-07-30T14:18:44;100573.06;;;18.10;100.00
16120;BME280;12670;53.502;10.252;2023-07-30T14:21:48;100573.25;;;18.31;100.00
16120;BME280;12670;53.502;10.252;2023-07-30T14:24:50;100573.41;;;18.52;100.00
16120;BME280;12670;53.502;10.252;2023-07-30T14:27:53;100567.38;;;18.73;100.00
16120;BME280;12670;53.502;10.252;2023-07-30T14:30:56;100558.97;;;19.00;100.00
16120;BME280;12670;53.502;10.252;2023-07-30T14:33:59;100560.63;;;19.45;100.00
16120;BME280;12670;53.502;10.252;2023-07-30T14:37:03;100555.72;;;19.62;100.00
16120;BME280;12670;53.502;10.252;2023-07-30T14:40:08;100554.38;;;19.56;100.00
16120;BME280;12670;53.502;10.252;2023-07-30T14:43:11;100555.28;;;19.89;100.00
16120;BME280;12670;53.502;10.252;2023-07-30T14:46:13;100555.25;;;20.00;100.00
16120;BME280;12670;53.502;10.252;2023-07-30T14:49:17;100548.13;;;19.99;100.00
16120;BME280;12670;53.502;10.252;2023-07-30T14:52:22;100543.88;;;19.96;100.00
16120;BME280;12670;53.502;10.252;2023-07-30T14:55:25;100541.25;;;20.27;100.00
16120;BME280;12670;53.502;10.252;2023-07-30T14:58:27;100541.78;;;20.21;100.00
16120;BME280;12670;53.502;10.252;2023-07-30T15:01:30;100539.22;;;20.19;100.00
16120;BME280;12670;53.502;10.252;2023-07-30T15:04:33;100543.75;;;20.19;100.00
16120;BME280;12670;53.502;10.252;2023-07-30T15:07:37;100537.19;;;20.12;100.00
16120;BME280;12670;53.502;10.252;2023-07-30T15:10:40;100546.59;;;19.85;100.00
16120;BME280;12670;53.502;10.252;2023-07-30T15:13:42;100543.63;;;20.00;100.00
16120;BME280;12670;53.502;10.252;2023-07-30T15:16:45;100545.38;;;19.89;100.00
16120;BME280;12670;53.502;10.252;2023-07-30T15:19:48;100545.88;;;20.36;100.00
16120;BME280;12670;53.502;10.252;2023-07-30T15:22:53;100550.88;;;20.62;100.00
16120;BME280;12670;53.502;10.252;2023-07-30T15:25:56;100552.06;;;20.48;100.00
16120;BME280;12670;53.502;10.252;2023-07-30T15:28:59;100556.88;;;20.33;100.00
16120;BME280;12670;53.502;10.252;2023-07-30T15:32:04;100559.66;;;20.43;100.00
16120;BME280;12670;53.502;10.252;2023-07-30T15:35:07;100572.53;;;20.39;100.00